Time;durP1;ratioP1;P1;durP2;ratioP2;P2;SDS_P1;SDS_P2;PMS_P1;PMS_P2;Temp;Humidity;BMP_temperature;BMP_pressure;BME280_temperature;BME280_humidity;BME280_pressure;Samples;Min_cycle;Max_cycle;Signal;HPM_P1;HPM_P2
2024/01/27 00:02:19;;;;;;;19.33;4.75;;;;;;;4.48;97.18;103392.13;5018634;28;20037;-83
2024/01/27 00:04:44;;;;;;;11.75;4.40;;;;;;;4.61;97.62;103408.78;5018401;28;20407;-85
2024/01/27 00:07:10;;;;;;;16.88;5.03;;;;;;;4.63;96.46;103397.63;5016488;28;20053;-84
2024/01/27 00:09:35;;;;;;;15.20;4.78;;;;;;;4.66;97.36;103399.56;5016590;28;20030;-83
2024/01/27 00:12:00;;;;;;;16.20;5.00;;;;;;;4.64;96.00;103401.16;5015696;28;20034;-81
2024/01/27 00:14:27;;;;;;;13.57;4.70;;;;;;;4.45;95.77;103373.59;5015438;28;20118;-79
2024/01/27 00:16:52;;;;;;;23.00;5.28;;;;;;;4.48;96.37;103397.38;5014968;28;20033;-80
2024/01/27 00:19:18;;;;;;;18.63;5.10;;;;;;;4.38;96.30;103378.25;5014378;28;20038;-80
2024/01/27 00:21:43;;;;;;;14.95;4.68;;;;;;;4.40;96.61;103374.03;5015830;28;20478;-80
2024/01/27 00:24:08;;;;;;;14.70;4.90;;;;;;;4.41;96.96;103373.22;5014806;28;20037;-80
2024/01/27 00:26:34;;;;;;;16.10;4.65;;;;;;;4.40;97.84;103364.44;5015248;28;20430;-81
2024/01/27 00:28:59;;;;;;;14.82;4.72;;;;;;;4.47;97.77;103372.00;5014938;28;20033;-80
2024/01/27 00:31:24;;;;;;;12.68;4.90;;;;;;;4.47;97.11;103386.78;5015860;28;20034;-84
2024/01/27 00:33:50;;;;;;;19.05;5.18;;;;;;;4.42;96.61;103394.28;5015287;28;20037;-82
2024/01/27 00:36:15;;;;;;;19.40;5.07;;;;;;;4.30;96.71;103376.75;5015282;28;20034;-80
2024/01/27 00:38:41;;;;;;;12.57;4.53;;;;;;;4.32;96.21;103407.44;5015673;28;20034;-80
2024/01/27 00:41:06;;;;;;;14.82;4.97;;;;;;;4.24;96.69;103405.97;5015001;28;20120;-81
2024/01/27 00:43:31;;;;;;;13.02;4.82;;;;;;;4.20;96.36;103403.91;5015546;28;20379;-81
2024/01/27 00:45:57;;;;;;;16.63;4.57;;;;;;;4.13;97.41;103392.03;4998076;28;20057;-80
2024/01/27 00:48:22;;;;;;;15.88;5.07;;;;;;;4.19;96.58;103417.75;5014117;28;20557;-80
2024/01/27 00:50:48;;;;;;;14.18;5.35;;;;;;;4.14;97.19;103411.28;5016818;28;20054;-81
2024/01/27 00:53:13;;;;;;;17.25;5.30;;;;;;;3.94;97.22;103397.56;5017008;28;20486;-80
2024/01/27 00:55:39;;;;;;;18.90;5.40;;;;;;;4.04;97.83;103408.75;5017287;28;20478;-80
2024/01/27 00:58:05;;;;;;;13.75;5.05;;;;;;;3.90;97.84;103397.19;5017015;28;20217;-80
2024/01/27 01:00:30;;;;;;;15.10;5.43;;;;;;;3.95;97.96;103420.28;5017370;28;20041;-80
2024/01/27 01:02:55;;;;;;;17.02;5.20;;;;;;;3.77;98.07;103397.94;5017388;28;20068;-81
2024/01/27 01:05:29;;;;;;;17.48;5.55;;;;;;;3.78;98.53;103409.31;4999657;28;20030;-80
2024/01/27 01:11:26;;;;;;;21.02;5.72;;;;;;;3.71;99.87;103406.19;4997281;28;20036;-80
2024/01/27 01:17:22;;;;;;;18.02;5.35;;;;;;;3.89;98.95;103418.88;4997691;28;20464;-80
2024/01/27 01:19:48;;;;;;;13.90;5.53;;;;;;;3.92;99.27;103419.13;4998005;28;20042;-80
2024/01/27 01:22:13;;;;;;;13.80;5.40;;;;;;;3.83;99.27;103403.63;4997249;28;20038;-80
2024/01/27 01:24:48;;;;;;;19.10;5.07;;;;;;;3.74;99.53;103395.06;5016863;28;20069;-80
2024/01/27 01:27:52;;;;;;;14.20;5.18;;;;;;;3.82;99.15;103416.59;4999626;28;20026;-80
2024/01/27 01:30:18;;;;;;;21.50;5.82;;;;;;;3.75;99.31;103410.84;5017223;28;20033;-80
2024/01/27 01:32:43;;;;;;;18.48;5.40;;;;;;;3.66;99.43;103417.97;5016970;28;20045;-80
2024/01/27 01:36:04;;;;;;;17.15;5.75;;;;;;;3.58;100.00;103426.00;5016649;28;20540;-80
2024/01/27 01:49:30;;;;;;;12.90;5.20;;;;;;;3.74;100.00;103419.50;5016704;28;20453;-80
2024/01/27 01:51:55;;;;;;;17.25;5.53;;;;;;;3.60;99.95;103396.59;5014197;28;20059;-80
2024/01/27 01:54:22;;;;;;;23.95;6.97;;;;;;;3.72;99.73;103414.94;4999327;28;20038;-80
2024/01/27 02:04:07;;;;;;;11.30;5.13;;;;;;;3.59;100.00;103420.88;5015134;28;20046;-79
2024/01/27 02:37:59;;;;;;;24.35;6.30;;;;;;;3.34;100.00;103446.75;5014927;28;20034;-80
2024/01/27 02:40:24;;;;;;;18.58;5.88;;;;;;;3.25;100.00;103438.13;5015428;28;20029;-80
2024/01/27 02:42:50;;;;;;;12.32;5.57;;;;;;;3.12;100.00;103420.53;5015403;28;20364;-79
2024/01/27 03:40:01;;;;;;;14.52;5.15;;;;;;;2.88;100.00;103422.06;5014463;28;20045;-80
2024/01/27 03:59:32;;;;;;;15.85;5.80;;;;;;;2.79;100.00;103444.78;5017096;28;20058;-81
2024/01/27 04:01:58;;;;;;;16.90;5.82;;;;;;;2.70;100.00;103431.88;5013940;28;20053;-80
2024/01/27 04:04:23;;;;;;;16.58;6.00;;;;;;;2.83;100.00;103445.97;5013996;28;20033;-80
2024/01/27 04:10:38;;;;;;;17.83;5.45;;;;;;;2.88;100.00;103448.16;5012857;28;20026;-80
2024/01/27 04:13:03;;;;;;;16.77;6.18;;;;;;;2.83;100.00;103440.75;5013884;28;20037;-81
2024/01/27 04:15:29;;;;;;;16.77;5.90;;;;;;;2.90;100.00;103461.34;5014385;28;20041;-80
2024/01/27 04:17:58;;;;;;;21.25;6.05;;;;;;;2.71;100.00;103431.09;5014129;28;20033;-80
2024/01/27 04:37:31;;;;;;;16.35;5.53;;;;;;;2.65;100.00;103425.34;5012761;28;20414;-80
2024/01/27 04:39:56;;;;;;;13.43;5.25;;;;;;;2.59;100.00;103423.91;5014187;28;20034;-81
2024/01/27 04:42:22;;;;;;;13.88;5.38;;;;;;;2.67;100.00;103455.09;5013614;28;20065;-81
2024/01/27 04:44:47;;;;;;;14.73;5.70;;;;;;;2.59;100.00;103453.53;5014097;28;20034;-80
2024/01/27 04:50:34;;;;;;;15.32;5.38;;;;;;;2.37;100.00;103450.81;5013517;28;20390;-80
2024/01/27 04:56:44;;;;;;;14.20;5.55;;;;;;;2.55;100.00;103459.28;5013561;28;20501;-80
2024/01/27 05:39:04;;;;;;;18.10;5.70;;;;;;;2.33;100.00;103443.50;5016683;28;20133;-80
2024/01/27 05:45:34;;;;;;;14.38;5.68;;;;;;;2.36;100.00;103440.25;5016598;28;20497;-80
2024/01/27 05:54:47;;;;;;;14.93;6.03;;;;;;;2.17;100.00;103409.03;5016135;28;20061;-80
2024/01/27 05:57:13;;;;;;;14.85;5.68;;;;;;;2.31;100.00;103432.00;5016502;28;20069;-80
2024/01/27 05:59:40;;;;;;;17.90;5.97;;;;;;;2.12;100.00;103410.34;5016228;28;20030;-80
2024/01/27 06:10:50;;;;;;;15.35;6.47;;;;;;;2.29;100.00;103440.50;5016108;28;20044;-81
2024/01/27 06:13:34;;;;;;;16.67;7.10;;;;;;;2.19;100.00;103428.38;5015583;28;20417;-81
2024/01/27 06:15:59;;;;;;;20.35;6.40;;;;;;;2.13;100.00;103426.13;5015779;28;20041;-82
2024/01/27 06:18:25;;;;;;;16.38;6.32;;;;;;;2.09;100.00;103436.16;5015759;28;20034;-81
2024/01/27 06:20:51;;;;;;;21.00;7.00;;;;;;;1.98;100.00;103428.31;5015764;28;20059;-81
2024/01/27 06:23:16;;;;;;;15.35;6.10;;;;;;;1.98;100.00;103432.63;5015977;28;20123;-81
2024/01/27 06:25:43;;;;;;;16.15;6.45;;;;;;;1.87;100.00;103422.94;5015430;28;20025;-82
2024/01/27 06:28:08;;;;;;;18.90;6.53;;;;;;;1.95;100.00;103438.47;5015485;28;20105;-81
2024/01/27 06:30:34;;;;;;;15.25;6.60;;;;;;;1.74;100.00;103414.06;5015477;28;20116;-81
2024/01/27 06:32:59;;;;;;;15.48;6.22;;;;;;;1.90;100.00;103431.03;4997589;28;20117;-82
2024/01/27 06:35:24;;;;;;;16.73;6.53;;;;;;;1.91;100.00;103439.00;5015092;28;20065;-81
2024/01/27 06:37:50;;;;;;;19.08;6.72;;;;;;;1.91;100.00;103435.47;5016047;28;20466;-81
2024/01/27 06:40:16;;;;;;;18.88;6.90;;;;;;;1.85;100.00;103429.72;5015288;28;20112;-82
2024/01/27 06:42:41;;;;;;;19.48;6.70;;;;;;;1.67;100.00;103414.31;5015206;28;20038;-82
2024/01/27 06:45:07;;;;;;;14.45;6.95;;;;;;;1.84;100.00;103433.09;5015182;28;20509;-82
2024/01/27 06:47:32;;;;;;;16.17;7.07;;;;;;;1.86;100.00;103448.09;5014784;28;20034;-82
2024/01/27 06:49:58;;;;;;;16.50;6.97;;;;;;;1.85;100.00;103448.00;5014961;28;20149;-82
2024/01/27 06:52:23;;;;;;;19.63;7.65;;;;;;;1.74;100.00;103432.28;5014553;28;20030;-82
2024/01/27 06:54:48;;;;;;;14.95;6.85;;;;;;;1.71;100.00;103436.31;5014340;28;20045;-82
2024/01/27 06:57:21;;;;;;;16.92;7.00;;;;;;;1.61;100.00;103425.88;5014806;28;20041;-82
2024/01/27 06:59:55;;;;;;;14.80;6.90;;;;;;;1.74;100.00;103454.84;5014751;28;20120;-82
2024/01/27 07:02:28;;;;;;;17.38;6.93;;;;;;;1.81;100.00;103471.97;5014863;28;20030;-82
2024/01/27 07:04:54;;;;;;;17.35;6.68;;;;;;;1.75;100.00;103462.78;5014622;28;20050;-82
2024/01/27 07:07:28;;;;;;;19.70;7.28;;;;;;;1.79;100.00;103471.78;5014704;28;20348;-82
2024/01/27 07:09:57;;;;;;;18.48;6.90;;;;;;;1.87;100.00;103472.47;5014632;28;20033;-82
2024/01/27 07:12:23;;;;;;;16.75;7.13;;;;;;;1.77;100.00;103470.75;5014760;28;20030;-82
2024/01/27 07:14:48;;;;;;;18.38;7.10;;;;;;;1.78;100.00;103471.69;5014327;28;20088;-82
2024/01/27 07:17:13;;;;;;;17.00;6.72;;;;;;;1.90;100.00;103491.00;5013845;28;20060;-82
2024/01/27 07:19:39;;;;;;;15.10;6.50;;;;;;;1.64;100.00;103441.78;5013400;28;20026;-82
2024/01/27 07:22:04;;;;;;;21.58;6.78;;;;;;;1.80;100.00;103472.72;4995865;28;20092;-82
2024/01/27 07:24:30;;;;;;;21.17;8.23;;;;;;;1.74;100.00;103468.78;5013535;28;20473;-83
2024/01/27 07:26:55;;;;;;;22.25;8.15;;;;;;;1.76;100.00;103489.78;5013633;28;20499;-82
2024/01/27 07:29:21;;;;;;;17.38;7.10;;;;;;;1.68;100.00;103476.06;5013226;28;20046;-83
2024/01/27 07:31:47;;;;;;;19.67;7.28;;;;;;;1.76;100.00;103500.22;4995627;28;20467;-82
2024/01/27 07:34:13;;;;;;;18.80;7.18;;;;;;;1.79;100.00;103489.13;5013404;28;20087;-82
2024/01/27 07:36:38;;;;;;;14.85;6.63;;;;;;;1.79;100.00;103491.75;5013511;28;20064;-83
2024/01/27 07:39:04;;;;;;;18.65;7.32;;;;;;;1.79;100.00;103499.56;5013285;28;20113;-83
2024/01/27 07:41:33;;;;;;;20.65;7.78;;;;;;;1.78;100.00;103506.47;5013243;28;20088;-83
2024/01/27 07:44:08;;;;;;;19.77;7.28;;;;;;;1.67;100.00;103479.47;5013273;28;20034;-82
2024/01/27 07:46:33;;;;;;;22.17;7.53;;;;;;;1.72;100.00;103503.34;5013433;28;20030;-83
2024/01/27 07:48:58;;;;;;;18.65;7.20;;;;;;;1.67;100.00;103483.75;5012741;28;20030;-83
2024/01/27 07:51:23;;;;;;;20.15;7.00;;;;;;;1.71;100.00;103485.84;5013149;28;20529;-82
2024/01/27 07:53:49;;;;;;;17.50;7.90;;;;;;;1.89;100.00;103508.34;5012916;28;20430;-82
2024/01/27 07:56:14;;;;;;;16.95;7.97;;;;;;;1.98;100.00;103513.47;5013221;28;20036;-82
2024/01/27 07:58:39;;;;;;;19.05;7.30;;;;;;;2.01;100.00;103500.66;5012263;28;20041;-86
2024/01/27 08:01:05;;;;;;;16.17;7.32;;;;;;;2.00;100.00;103470.16;5012690;28;20038;-83
2024/01/27 08:03:30;;;;;;;17.42;6.65;;;;;;;2.31;100.00;103499.81;5013286;28;20387;-82
2024/01/27 08:05:56;;;;;;;17.73;7.55;;;;;;;2.48;100.00;103493.47;4995200;28;20120;-81
2024/01/27 08:08:23;;;;;;;14.80;7.13;;;;;;;2.76;100.00;103504.56;5013322;28;20030;-81
2024/01/27 08:10:48;;;;;;;17.90;7.20;;;;;;;2.95;100.00;103504.41;5013054;28;20045;-82
2024/01/27 08:13:14;;;;;;;17.70;7.10;;;;;;;3.13;100.00;103500.75;5013274;28;20038;-82
2024/01/27 08:15:39;;;;;;;19.60;7.30;;;;;;;3.29;100.00;103504.63;4995609;28;20057;-81
2024/01/27 08:18:04;;;;;;;16.80;7.50;;;;;;;3.37;100.00;103480.03;5013185;28;20518;-83
2024/01/27 08:20:30;;;;;;;19.42;7.63;;;;;;;3.55;100.00;103478.03;5012976;28;20037;-83
2024/01/27 08:22:55;;;;;;;19.85;6.93;;;;;;;3.82;100.00;103502.91;5012967;28;20049;-83
2024/01/27 08:25:21;;;;;;;17.67;6.88;;;;;;;4.01;100.00;103498.34;5012765;28;20064;-82
2024/01/27 08:27:46;;;;;;;15.27;7.13;;;;;;;4.19;100.00;103488.41;5013094;28;20037;-82
2024/01/27 08:30:12;;;;;;;18.02;7.07;;;;;;;4.44;100.00;103501.75;5013298;28;20132;-82
2024/01/27 08:32:37;;;;;;;17.83;6.60;;;;;;;4.71;100.00;103498.66;5012986;28;20045;-82
2024/01/27 08:35:03;;;;;;;19.48;6.65;;;;;;;4.98;100.00;103496.31;5013274;28;20034;-82
2024/01/27 08:37:29;;;;;;;15.88;6.82;;;;;;;5.23;100.00;103473.78;5013330;28;20121;-82
2024/01/27 08:39:55;;;;;;;18.25;6.68;;;;;;;5.51;98.40;103475.81;5013489;28;20038;-82
2024/01/27 08:42:21;;;;;;;20.15;6.97;;;;;;;5.65;96.11;103483.00;4996253;28;20033;-82
2024/01/27 08:44:46;;;;;;;16.42;6.35;;;;;;;5.89;96.66;103488.19;5013056;28;20037;-82
2024/01/27 08:47:20;;;;;;;13.57;6.03;;;;;;;6.04;94.30;103489.34;4995548;28;20038;-83
2024/01/27 08:50:06;;;;;;;19.08;6.95;;;;;;;6.31;94.23;103499.97;5012752;28;20502;-82
2024/01/27 08:52:31;;;;;;;15.95;6.78;;;;;;;6.39;91.84;103499.72;5012804;28;20196;-83
2024/01/27 08:54:56;;;;;;;18.98;6.50;;;;;;;6.33;91.18;103480.88;5012512;28;20430;-83
2024/01/27 08:57:22;;;;;;;14.77;5.95;;;;;;;6.52;92.34;103490.97;5012856;28;20037;-83
2024/01/27 08:59:47;;;;;;;17.08;6.50;;;;;;;6.71;90.86;103496.69;5012758;28;20034;-84
2024/01/27 09:02:12;;;;;;;12.90;6.35;;;;;;;6.91;89.84;103510.31;4995444;28;20038;-83
2024/01/27 09:05:15;;;;;;;16.73;6.88;;;;;;;7.09;90.39;103510.63;5012252;28;20133;-82
2024/01/27 09:07:41;;;;;;;19.67;6.47;;;;;;;7.29;89.74;103510.25;5013010;28;20033;-83
2024/01/27 09:10:07;;;;;;;19.20;6.47;;;;;;;7.53;90.05;103513.59;5013928;28;20113;-83
2024/01/27 09:12:38;;;;;;;15.23;6.20;;;;;;;7.57;87.77;103506.81;5016839;28;20458;-83
2024/01/27 09:18:26;;;;;;;22.05;6.53;;;;;;;7.96;85.26;103509.41;5016475;28;20036;-83
2024/01/27 09:20:52;;;;;;;14.38;6.13;;;;;;;8.09;86.54;103508.44;5016244;28;20116;-82
2024/01/27 09:23:17;;;;;;;17.33;6.57;;;;;;;8.25;83.77;103529.69;5016122;28;20069;-82
2024/01/27 09:25:42;;;;;;;16.98;6.28;;;;;;;8.28;81.57;103519.34;5016010;28;20030;-82
2024/01/27 09:28:08;;;;;;;19.48;6.32;;;;;;;8.49;81.90;103533.00;4998874;28;20038;-82
2024/01/27 09:30:33;;;;;;;13.63;5.72;;;;;;;8.46;82.38;103537.16;5015877;28;20471;-82
2024/01/27 09:32:58;;;;;;;20.95;6.75;;;;;;;8.43;80.15;103510.63;4998672;28;20076;-83
2024/01/27 09:35:24;;;;;;;21.30;6.15;;;;;;;8.64;80.37;103538.31;5016393;28;20479;-85
2024/01/27 09:37:49;;;;;;;15.02;6.75;;;;;;;8.90;83.02;103552.16;5015882;28;20103;-85
2024/01/27 09:40:15;;;;;;;21.27;6.40;;;;;;;9.00;80.48;103533.47;5015982;28;20121;-84
2024/01/27 09:42:50;;;;;;;17.60;6.15;;;;;;;9.33;79.82;103553.03;5015744;28;20434;-84
2024/01/27 09:45:16;;;;;;;18.85;7.13;;;;;;;9.56;78.66;103553.47;5016350;28;20036;-84
2024/01/27 09:47:42;;;;;;;19.83;6.40;;;;;;;9.39;77.76;103541.94;5015799;28;20397;-85
2024/01/27 09:50:11;;;;;;;16.92;6.72;;;;;;;9.39;80.15;103539.31;5015642;28;20034;-82
2024/01/27 09:52:36;;;;;;;21.10;6.20;;;;;;;9.52;80.07;103548.03;5015719;28;20045;-84
2024/01/27 09:55:02;;;;;;;14.90;6.47;;;;;;;9.36;77.22;103528.56;5015774;28;20042;-84
2024/01/27 09:57:29;;;;;;;16.83;6.43;;;;;;;9.24;78.65;103552.47;5015346;28;20038;-82
2024/01/27 09:59:56;;;;;;;17.80;6.28;;;;;;;9.24;78.63;103563.94;4997938;28;20423;-83
2024/01/27 10:02:24;;;;;;;16.05;6.43;;;;;;;9.03;77.72;103560.00;5015470;28;20049;-82
2024/01/27 10:04:51;;;;;;;19.73;6.60;;;;;;;9.15;79.73;103562.47;4998026;28;20054;-82
2024/01/27 10:07:16;;;;;;;16.95;5.93;;;;;;;9.28;80.14;103565.94;5015958;28;20129;-82
2024/01/27 10:09:43;;;;;;;27.48;6.47;;;;;;;9.76;80.12;103579.28;4998016;28;20037;-82
2024/01/27 10:12:12;;;;;;;15.82;5.78;;;;;;;9.84;77.63;103580.66;5015217;28;20030;-82
2024/01/27 10:18:06;;;;;;;20.02;6.57;;;;;;;9.36;79.02;103574.31;5015198;28;20040;-82
2024/01/27 10:20:31;;;;;;;15.45;6.20;;;;;;;9.49;79.31;103570.69;5015222;28;20112;-82
2024/01/27 10:22:57;;;;;;;15.15;6.07;;;;;;;9.61;78.55;103567.84;4997367;28;20118;-82
2024/01/27 10:25:28;;;;;;;17.95;6.05;;;;;;;9.77;78.58;103568.84;5015222;28;20038;-82
2024/01/27 10:31:19;;;;;;;16.60;5.68;;;;;;;9.82;76.34;103545.34;5014975;28;20124;-82
2024/01/27 10:37:06;;;;;;;17.65;5.70;;;;;;;10.33;77.21;103550.84;5015119;28;20091;-82
2024/01/27 10:39:31;;;;;;;14.57;5.57;;;;;;;10.68;75.23;103574.81;5015232;28;20030;-82
2024/01/27 10:42:03;;;;;;;15.98;5.97;;;;;;;10.89;76.92;103558.28;5014912;28;20068;-82
2024/01/27 10:44:29;;;;;;;16.15;5.97;;;;;;;10.83;73.14;103580.00;5015235;28;20038;-81
2024/01/27 10:47:00;;;;;;;19.88;5.75;;;;;;;10.77;74.67;103548.88;5015436;28;20117;-81
2024/01/27 10:49:31;;;;;;;15.93;5.38;;;;;;;11.07;74.54;103563.63;5014898;28;20030;-82
2024/01/27 10:51:58;;;;;;;20.48;6.10;;;;;;;10.96;72.63;103558.72;5014594;28;20045;-81
2024/01/27 10:54:28;;;;;;;15.32;5.30;;;;;;;11.24;73.59;103576.00;5014725;28;20030;-81
2024/01/27 10:56:57;;;;;;;16.33;6.15;;;;;;;10.99;72.07;103548.25;5014471;28;20037;-82
2024/01/27 10:59:25;;;;;;;18.60;6.20;;;;;;;11.12;72.34;103560.38;4997074;28;20379;-82
2024/01/27 11:01:53;;;;;;;22.73;6.18;;;;;;;11.35;73.95;103548.38;5014279;28;20113;-82
2024/01/27 11:04:19;;;;;;;21.33;5.93;;;;;;;11.40;71.63;103538.91;5014131;28;20038;-83
2024/01/27 11:06:47;;;;;;;15.10;5.88;;;;;;;11.54;70.77;103552.84;5014340;28;20034;-81
2024/01/27 11:09:14;;;;;;;19.20;5.93;;;;;;;11.46;71.09;103538.28;5013798;28;20036;-82
2024/01/27 11:11:41;;;;;;;16.50;5.75;;;;;;;11.79;71.48;103542.63;5014183;28;20032;-82
2024/01/27 11:14:08;;;;;;;17.05;5.60;;;;;;;11.78;69.81;103527.56;5013914;28;20545;-82
2024/01/27 11:16:34;;;;;;;15.10;6.00;;;;;;;11.82;69.98;103540.94;5014127;28;20117;-82
2024/01/27 11:19:00;;;;;;;16.33;6.03;;;;;;;11.65;69.24;103541.03;5013850;28;20125;-81
2024/01/27 11:21:26;;;;;;;16.35;5.63;;;;;;;11.57;69.16;103539.75;5014008;28;20092;-82
2024/01/27 11:23:51;;;;;;;20.95;5.75;;;;;;;11.59;70.51;103530.13;4996189;28;20037;-81
2024/01/27 11:26:22;;;;;;;18.27;5.47;;;;;;;11.83;69.67;103538.41;5013806;28;20073;-81
2024/01/27 11:28:51;;;;;;;14.70;5.30;;;;;;;11.73;70.58;103523.78;5013706;28;20034;-82
2024/01/27 11:31:19;;;;;;;17.70;5.68;;;;;;;12.05;69.75;103516.50;5013730;28;20110;-81
2024/01/27 11:33:48;;;;;;;16.25;5.40;;;;;;;12.02;67.16;103522.56;5012854;28;20037;-82
2024/01/27 11:36:23;;;;;;;18.77;5.32;;;;;;;12.18;68.85;103510.94;5014073;28;20038;-81
2024/01/27 11:38:50;;;;;;;20.73;5.28;;;;;;;12.40;67.60;103530.50;4980058;28;20466;-82
2024/01/27 11:41:29;;;;;;;19.25;5.82;;;;;;;12.48;66.93;103530.03;5013723;28;20108;-81
2024/01/27 11:43:55;;;;;;;18.38;5.28;;;;;;;12.73;67.19;103532.03;5013638;28;20143;-82
2024/01/27 11:46:21;;;;;;;16.25;4.85;;;;;;;12.78;64.54;103537.56;5013433;28;20038;-81
2024/01/27 11:48:48;;;;;;;17.38;5.00;;;;;;;12.78;65.16;103513.69;5013584;28;20036;-82
2024/01/27 11:51:14;;;;;;;16.67;4.43;;;;;;;12.76;63.28;103497.69;4995605;28;20398;-82
2024/01/27 11:53:39;;;;;;;15.00;4.85;;;;;;;13.07;63.64;103516.72;5013252;28;20124;-82
2024/01/27 11:56:06;;;;;;;16.17;4.53;;;;;;;13.09;61.62;103502.63;5013083;28;20044;-83
2024/01/27 11:58:32;;;;;;;17.45;4.70;;;;;;;13.01;61.80;103483.72;5013386;28;20072;-81
2024/01/27 12:01:01;;;;;;;15.48;4.70;;;;;;;12.93;60.15;103470.97;5013034;28;20038;-81
2024/01/27 12:03:28;;;;;;;14.40;4.43;;;;;;;13.07;61.12;103488.41;5013382;28;20393;-81
2024/01/27 12:05:54;;;;;;;13.07;4.30;;;;;;;13.07;60.77;103490.16;5012874;28;20072;-81
2024/01/27 12:08:19;;;;;;;13.48;4.30;;;;;;;13.26;60.14;103492.78;4995408;28;20427;-81
2024/01/27 12:10:44;;;;;;;14.45;4.40;;;;;;;13.29;59.97;103490.25;5013147;28;20045;-81
2024/01/27 12:13:10;;;;;;;12.95;4.45;;;;;;;13.44;60.86;103484.66;5012911;28;20069;-81
2024/01/27 12:15:35;;;;;;;12.20;4.53;;;;;;;13.51;58.70;103486.75;5013226;28;20069;-81
2024/01/27 12:18:01;;;;;;;10.38;4.50;;;;;;;13.42;58.60;103492.56;5013019;28;20132;-82
2024/01/27 12:20:27;;;;;;;16.05;5.18;;;;;;;13.58;59.38;103494.13;5013290;28;20120;-81
2024/01/27 12:23:08;;;;;;;14.25;4.60;;;;;;;13.72;59.71;103503.56;5013085;28;20041;-81
2024/01/27 12:25:34;;;;;;;14.98;4.57;;;;;;;13.63;57.97;103505.84;5012560;28;20446;-81
2024/01/27 12:28:03;;;;;;;14.07;4.70;;;;;;;13.39;57.02;103476.50;5012594;28;20437;-81
2024/01/27 12:30:28;;;;;;;12.07;4.28;;;;;;;13.44;58.21;103489.97;4995521;28;20120;-81
2024/01/27 12:32:54;;;;;;;13.45;4.68;;;;;;;13.47;58.44;103500.72;4995699;28;20423;-83
2024/01/27 12:35:19;;;;;;;12.23;4.40;;;;;;;13.48;59.72;103497.22;5012964;28;20030;-82
2024/01/27 12:37:45;;;;;;;17.27;5.03;;;;;;;13.43;59.28;103488.16;5012723;28;20042;-81
2024/01/27 12:40:20;;;;;;;16.13;4.68;;;;;;;13.50;59.35;103490.25;5012872;28;20066;-81
2024/01/27 12:42:46;;;;;;;14.38;4.60;;;;;;;13.51;60.15;103492.94;5012998;28;20482;-81
2024/01/27 12:45:12;;;;;;;13.75;4.45;;;;;;;13.31;58.44;103485.91;5013999;28;20102;-81
2024/01/27 12:47:38;;;;;;;15.05;4.70;;;;;;;13.25;57.88;103475.94;5016926;28;20413;-82
2024/01/27 12:50:04;;;;;;;17.33;4.10;;;;;;;13.24;57.88;103475.88;5016710;28;20034;-82
2024/01/27 12:52:29;;;;;;;15.45;4.55;;;;;;;13.20;57.97;103473.91;5016936;28;20149;-81
2024/01/27 12:54:55;;;;;;;12.77;4.30;;;;;;;13.31;58.32;103459.34;5016632;28;20463;-82
2024/01/27 12:57:20;;;;;;;16.73;4.25;;;;;;;13.53;58.94;103477.06;4999405;28;20586;-81
2024/01/27 12:59:45;;;;;;;13.95;4.50;;;;;;;13.52;58.66;103480.56;5016767;28;20096;-81
2024/01/27 13:02:11;;;;;;;13.00;4.40;;;;;;;13.44;57.54;103474.03;5016958;28;20030;-81
2024/01/27 13:04:36;;;;;;;14.43;4.40;;;;;;;13.44;59.49;103472.28;5016479;28;20056;-83
2024/01/27 13:07:02;;;;;;;18.15;4.50;;;;;;;13.13;58.01;103485.09;5016588;28;20030;-83
2024/01/27 13:09:27;;;;;;;13.77;4.57;;;;;;;13.14;59.38;103474.53;4998177;28;20109;-85
2024/01/27 13:11:53;;;;;;;15.02;4.40;;;;;;;13.37;60.19;103475.56;4998795;28;20033;-82
2024/01/27 13:14:20;;;;;;;13.13;4.68;;;;;;;13.11;58.05;103458.50;5010170;28;20045;-85
2024/01/27 13:16:45;;;;;;;17.92;5.10;;;;;;;13.28;59.14;103467.22;5015815;28;20045;-81
2024/01/27 13:19:10;;;;;;;16.52;4.57;;;;;;;13.35;59.58;103457.72;5013910;28;20030;-82
2024/01/27 13:21:36;;;;;;;19.38;4.90;;;;;;;13.40;59.70;103453.50;5015826;28;20073;-82
2024/01/27 13:24:01;;;;;;;16.08;4.85;;;;;;;13.34;58.24;103442.66;5015510;28;20030;-81
2024/01/27 13:26:28;;;;;;;12.40;4.55;;;;;;;13.30;57.96;103446.03;5015600;28;20470;-80
2024/01/27 13:28:53;;;;;;;16.70;4.70;;;;;;;13.46;59.01;103440.50;5015411;28;20475;-81
2024/01/27 13:31:18;;;;;;;13.25;4.55;;;;;;;13.26;57.15;103445.88;5015713;28;20034;-81
2024/01/27 13:33:44;;;;;;;14.57;5.40;;;;;;;13.27;57.86;103414.91;5015574;28;20467;-81
2024/01/27 13:36:10;;;;;;;20.77;8.70;;;;;;;13.53;58.04;103434.56;5015718;28;20092;-80
2024/01/27 13:38:35;;;;;;;16.10;4.97;;;;;;;13.44;56.64;103416.50;4997939;28;20045;-82
2024/01/27 13:41:01;;;;;;;17.60;5.15;;;;;;;13.38;57.04;103436.63;5015417;28;20034;-81
2024/01/27 13:43:26;;;;;;;13.18;4.50;;;;;;;13.38;58.83;103429.56;4997741;28;20084;-81
2024/01/27 13:45:54;;;;;;;13.77;4.85;;;;;;;13.30;57.67;103433.66;5015422;28;20050;-81
2024/01/27 13:48:20;;;;;;;17.73;4.97;;;;;;;13.38;58.83;103440.19;5015202;28;20038;-80
2024/01/27 13:50:46;;;;;;;16.83;5.00;;;;;;;13.44;58.16;103439.50;4997289;28;20076;-80
2024/01/27 13:53:11;;;;;;;16.58;4.75;;;;;;;13.41;58.49;103423.47;5015251;28;20026;-81
2024/01/27 13:55:37;;;;;;;13.88;4.63;;;;;;;13.46;57.48;103441.41;5014943;28;20061;-80
2024/01/27 13:58:03;;;;;;;17.42;5.07;;;;;;;13.16;56.94;103450.72;5014252;28;20423;-80
2024/01/27 14:00:29;;;;;;;19.27;4.85;;;;;;;13.06;57.81;103449.44;5006947;28;20064;-80
2024/01/27 14:02:56;;;;;;;16.45;4.78;;;;;;;12.71;57.50;103426.69;5015048;28;20386;-80
2024/01/27 14:05:21;;;;;;;17.13;4.45;;;;;;;12.75;59.06;103431.28;5014905;28;20054;-80
2024/01/27 14:07:47;;;;;;;15.65;4.55;;;;;;;12.78;57.89;103452.66;5014944;28;20049;-82
2024/01/27 14:10:13;;;;;;;13.32;4.45;;;;;;;12.42;57.88;103442.25;5014990;28;20038;-84
2024/01/27 14:12:38;;;;;;;19.98;4.47;;;;;;;12.21;58.22;103431.56;5014830;28;20118;-81
2024/01/27 14:15:09;;;;;;;14.18;4.57;;;;;;;12.10;59.65;103446.06;5014799;28;20107;-81
2024/01/27 14:17:36;;;;;;;15.07;4.38;;;;;;;12.19;60.65;103448.22;5014545;28;20438;-81
2024/01/27 14:20:02;;;;;;;12.85;4.32;;;;;;;12.20;60.04;103450.94;5011816;28;20475;-81
2024/01/27 14:22:27;;;;;;;12.40;4.25;;;;;;;12.12;58.98;103435.53;5014512;28;20064;-80
2024/01/27 14:24:53;;;;;;;13.32;4.13;;;;;;;12.19;59.02;103422.63;4996646;28;20034;-81
2024/01/27 14:27:25;;;;;;;15.30;4.30;;;;;;;12.12;59.61;103455.00;5014668;28;20061;-82
2024/01/27 14:29:50;;;;;;;;;;;;;;;12.19;61.12;103456.19;5015038;28;20025;-81
2024/01/27 14:32:16;;;;;;;14.68;4.25;;;;;;;12.20;58.78;103452.69;5014199;28;19917;-80
2024/01/27 14:34:41;;;;;;;13.20;4.43;;;;;;;12.14;58.69;103428.56;5014446;28;20068;-80
2024/01/27 14:37:07;;;;;;;13.57;3.80;;;;;;;12.29;59.48;103439.88;5014030;28;20116;-81
2024/01/27 14:39:33;;;;;;;18.45;4.35;;;;;;;12.31;58.79;103448.78;5013962;28;20030;-81
2024/01/27 14:41:58;;;;;;;13.63;4.88;;;;;;;12.09;58.40;103452.22;5014362;28;20077;-81
2024/01/27 14:44:24;;;;;;;13.57;4.13;;;;;;;12.12;58.97;103443.47;5014082;28;20467;-81
2024/01/27 14:46:49;;;;;;;11.43;4.07;;;;;;;11.92;58.78;103438.19;5014342;28;20482;-81
2024/01/27 14:49:15;;;;;;;15.63;4.10;;;;;;;11.71;58.40;103431.81;5014094;28;20034;-80
2024/01/27 14:51:41;;;;;;;14.75;4.10;;;;;;;11.74;61.03;103424.03;5013893;28;20030;-81
2024/01/27 14:54:06;;;;;;;12.80;3.85;;;;;;;11.77;59.11;103433.00;5013779;28;20034;-82
2024/01/27 14:56:31;;;;;;;13.63;4.20;;;;;;;11.84;58.42;103446.59;5014435;28;20113;-81
2024/01/27 14:58:58;;;;;;;14.45;4.38;;;;;;;11.72;58.96;103434.53;5014330;28;20034;-82
2024/01/27 15:01:24;;;;;;;15.05;3.95;;;;;;;11.68;58.70;103413.13;5014485;28;20041;-82
2024/01/27 15:03:50;;;;;;;15.57;3.85;;;;;;;11.68;58.61;103432.56;5014418;28;20038;-81
2024/01/27 15:06:16;;;;;;;12.32;4.35;;;;;;;11.76;59.36;103431.19;5014117;28;20132;-82
2024/01/27 15:08:41;;;;;;;10.77;4.07;;;;;;;11.80;59.33;103429.59;5014000;28;20103;-81